Time;durP1;ratioP1;P1;durP2;ratioP2;P2;SDS_P1;SDS_P2;PMS_P1;PMS_P2;Temp;Humidity;BMP_temperature;BMP_pressure;BME280_temperature;BME280_humidity;BME280_pressure;Samples;Min_cycle;Max_cycle;Signal;HPM_P1;HPM_P2
2023/01/30 00:00:52;;;;;;;22.67;12.60;;;;;;;;;;5031685;28;20479;-75
2023/01/30 00:03:19;;;;;;;23.53;13.90;;;;;;;;;;5032685;28;20045;-75
2023/01/30 00:05:45;;;;;;;24.67;14.20;;;;;;;;;;5032898;28;20052;-76
2023/01/30 00:08:11;;;;;;;24.80;14.93;;;;;;;;;;4499514;28;20048;-76
2023/01/30 00:10:37;;;;;;;26.33;15.30;;;;;;;;;;5032975;28;20058;-75
2023/01/30 00:13:03;;;;;;;27.50;15.77;;;;;;;;;;5032615;28;20037;-76
2023/01/30 00:15:29;;;;;;;163.63;65.97;;;;;;;;;;5032326;28;20549;-75
2023/01/30 00:17:55;;;;;;;126.50;50.80;;;;;;;;;;5032265;28;20041;-76
2023/01/30 00:20:21;;;;;;;25.73;16.13;;;;;;;;;;5031270;28;20037;-77
2023/01/30 00:22:47;;;;;;;22.83;15.27;;;;;;;;;;5031426;28;20056;-75
2023/01/30 00:25:13;;;;;;;25.30;14.90;;;;;;;;;;5032693;28;20038;-76
2023/01/30 00:27:39;;;;;;;22.97;14.60;;;;;;;;;;5032554;28;20041;-75
2023/01/30 00:30:06;;;;;;;25.00;15.87;;;;;;;;;;5031376;28;20038;-75
2023/01/30 00:32:32;;;;;;;28.00;17.07;;;;;;;;;;5032597;28;20040;-76
2023/01/30 00:34:58;;;;;;;29.30;15.63;;;;;;;;;;5032712;28;20116;-75
2023/01/30 00:37:24;;;;;;;26.30;15.63;;;;;;;;;;5032665;28;20040;-76
2023/01/30 00:39:50;;;;;;;25.07;15.27;;;;;;;;;;5032727;28;20041;-75
2023/01/30 00:47:47;;;;;;;27.13;14.77;;;;;;;;;;5032322;28;20052;-74
2023/01/30 00:50:14;;;;;;;26.70;14.53;;;;;;;;;;5032301;28;20037;-75
2023/01/30 00:52:40;;;;;;;25.30;14.40;;;;;;;;;;5032566;28;20072;-75
2023/01/30 00:55:06;;;;;;;26.00;14.60;;;;;;;;;;5032413;28;20041;-75
2023/01/30 00:57:32;;;;;;;26.57;14.90;;;;;;;;;;5032486;28;20033;-76
2023/01/30 00:59:58;;;;;;;26.53;14.93;;;;;;;;;;5032527;28;20045;-75
2023/01/30 01:02:24;;;;;;;28.13;14.20;;;;;;;;;;5032189;28;20033;-76
2023/01/30 01:04:50;;;;;;;30.00;14.20;;;;;;;;;;5031979;28;20216;-75
2023/01/30 01:07:16;;;;;;;24.50;13.87;;;;;;;;;;5033112;28;20491;-76
2023/01/30 01:09:42;;;;;;;95.67;43.10;;;;;;;;;;5035847;28;20049;-75
2023/01/30 01:12:09;;;;;;;24.90;14.30;;;;;;;;;;5034670;28;20111;-75
2023/01/30 01:14:35;;;;;;;28.73;13.67;;;;;;;;;;5034790;28;20045;-75
2023/01/30 01:17:01;;;;;;;24.47;15.07;;;;;;;;;;5035923;28;20034;-74
2023/01/30 01:19:27;;;;;;;26.40;14.97;;;;;;;;;;5036050;28;20091;-75
2023/01/30 01:21:53;;;;;;;27.67;14.40;;;;;;;;;;5034660;28;20113;-75
2023/01/30 01:24:19;;;;;;;24.90;14.00;;;;;;;;;;5035664;28;20043;-75
2023/01/30 01:26:45;;;;;;;27.90;15.10;;;;;;;;;;5035711;28;20071;-76
2023/01/30 01:29:15;;;;;;;24.37;14.53;;;;;;;;;;5035642;28;20095;-75
2023/01/30 01:31:41;;;;;;;25.70;15.00;;;;;;;;;;5035605;28;20514;-75
2023/01/30 01:34:07;;;;;;;22.37;13.87;;;;;;;;;;5035746;28;20034;-74
2023/01/30 01:36:34;;;;;;;26.37;15.27;;;;;;;;;;5035699;28;20057;-75
2023/01/30 01:39:00;;;;;;;29.70;13.90;;;;;;;;;;5034131;28;20038;-75
2023/01/30 01:41:26;;;;;;;26.97;14.43;;;;;;;;;;5035331;28;20555;-75
2023/01/30 01:44:01;;;;;;;26.60;13.33;;;;;;;;;;5033814;28;20037;-75
2023/01/30 01:46:28;;;;;;;25.27;14.37;;;;;;;;;;5035396;28;20025;-74
2023/01/30 01:48:56;;;;;;;24.80;14.03;;;;;;;;;;5034143;28;20187;-74
2023/01/30 01:51:26;;;;;;;23.93;15.10;;;;;;;;;;5035214;28;20057;-74
2023/01/30 01:54:12;;;;;;;23.57;14.37;;;;;;;;;;5034848;28;20041;-74
2023/01/30 01:56:41;;;;;;;25.23;13.87;;;;;;;;;;5034968;28;20476;-74
2023/01/30 01:59:13;;;;;;;25.23;14.57;;;;;;;;;;5031023;28;20603;-74
2023/01/30 02:01:39;;;;;;;23.23;13.43;;;;;;;;;;5032454;28;20033;-74
2023/01/30 02:04:08;;;;;;;19.43;12.57;;;;;;;;;;5032745;28;20068;-74
2023/01/30 02:06:36;;;;;;;21.33;12.53;;;;;;;;;;5034650;28;20042;-74
2023/01/30 02:09:03;;;;;;;21.83;13.57;;;;;;;;;;5034619;28;20042;-74
2023/01/30 02:11:31;;;;;;;21.87;12.37;;;;;;;;;;5034867;28;20034;-74
2023/01/30 02:13:57;;;;;;;20.87;13.37;;;;;;;;;;5034540;28;20562;-74
2023/01/30 02:16:23;;;;;;;28.43;14.20;;;;;;;;;;5034541;28;20037;-74
2023/01/30 02:18:50;;;;;;;28.50;15.27;;;;;;;;;;5034261;28;20049;-74
2023/01/30 02:21:34;;;;;;;29.87;16.50;;;;;;;;;;5034403;28;20034;-75
2023/01/30 02:24:09;;;;;;;34.67;17.00;;;;;;;;;;5034498;28;20092;-75
2023/01/30 02:26:45;;;;;;;28.63;15.90;;;;;;;;;;5034568;28;20045;-75
2023/01/30 02:29:14;;;;;;;29.27;15.50;;;;;;;;;;5034055;28;20049;-74
2023/01/30 02:31:40;;;;;;;31.33;15.90;;;;;;;;;;5034490;28;20491;-74
2023/01/30 02:34:24;;;;;;;30.17;17.00;;;;;;;;;;5033306;28;20552;-74
2023/01/30 02:37:08;;;;;;;33.13;16.30;;;;;;;;;;5034021;28;20033;-74
2023/01/30 02:39:52;;;;;;;29.63;17.40;;;;;;;;;;5034221;28;20480;-74
2023/01/30 02:42:18;;;;;;;30.23;16.57;;;;;;;;;;5034029;28;20399;-75
2023/01/30 02:44:55;;;;;;;30.83;15.60;;;;;;;;;;5033779;28;20496;-74
2023/01/30 02:47:40;;;;;;;29.53;16.30;;;;;;;;;;5034208;28;20061;-74
2023/01/30 02:50:26;;;;;;;25.90;14.53;;;;;;;;;;5034413;28;20041;-75
2023/01/30 02:52:52;;;;;;;27.90;13.93;;;;;;;;;;5032962;28;20491;-75
2023/01/30 02:55:26;;;;;;;23.53;13.77;;;;;;;;;;5032667;28;20033;-75
2023/01/30 02:57:52;;;;;;;27.03;14.10;;;;;;;;;;5034148;28;20034;-74
2023/01/30 03:00:20;;;;;;;24.77;13.30;;;;;;;;;;5033857;28;20049;-75
2023/01/30 03:03:06;;;;;;;21.23;12.47;;;;;;;;;;5032683;28;20041;-74
2023/01/30 03:05:50;;;;;;;24.77;14.03;;;;;;;;;;5033656;28;20041;-75
2023/01/30 03:08:22;;;;;;;22.67;12.83;;;;;;;;;;5034039;28;20542;-75
2023/01/30 03:10:48;;;;;;;23.27;13.63;;;;;;;;;;5033725;28;20571;-75
2023/01/30 03:13:19;;;;;;;23.37;13.90;;;;;;;;;;5033631;28;20030;-75
2023/01/30 03:15:49;;;;;;;24.77;13.77;;;;;;;;;;5033384;28;20476;-74
2023/01/30 03:18:16;;;;;;;20.80;12.10;;;;;;;;;;5033385;28;20037;-74
2023/01/30 03:20:42;;;;;;;24.90;12.23;;;;;;;;;;5032175;28;20041;-74
2023/01/30 03:23:08;;;;;;;23.60;13.63;;;;;;;;;;5033410;28;20036;-75
2023/01/30 03:25:36;;;;;;;22.97;13.30;;;;;;;;;;5033335;28;20033;-75
2023/01/30 03:28:03;;;;;;;21.33;12.33;;;;;;;;;;5033218;28;20108;-75
2023/01/30 03:30:29;;;;;;;23.07;13.60;;;;;;;;;;5032913;28;20037;-75
2023/01/30 03:32:55;;;;;;;24.90;12.63;;;;;;;;;;5033224;28;20713;-75
2023/01/30 03:35:21;;;;;;;23.50;13.23;;;;;;;;;;5033144;28;20044;-75
2023/01/30 03:37:48;;;;;;;22.37;13.60;;;;;;;;;;5033113;28;20029;-74
2023/01/30 03:40:14;;;;;;;25.10;13.80;;;;;;;;;;5033223;28;20037;-74
2023/01/30 03:42:41;;;;;;;19.70;12.63;;;;;;;;;;5033236;28;20036;-75
2023/01/30 03:45:07;;;;;;;26.80;13.00;;;;;;;;;;5033161;28;20033;-75
2023/01/30 03:47:33;;;;;;;24.90;12.83;;;;;;;;;;5033220;28;20117;-74
2023/01/30 03:49:59;;;;;;;30.20;13.53;;;;;;;;;;5031680;28;20407;-75
2023/01/30 03:52:25;;;;;;;24.23;13.00;;;;;;;;;;5032980;28;20109;-75
2023/01/30 03:54:51;;;;;;;24.23;13.90;;;;;;;;;;5033096;28;20530;-74
2023/01/30 03:57:17;;;;;;;23.93;13.33;;;;;;;;;;5032784;28;20029;-74
2023/01/30 03:59:43;;;;;;;23.90;12.80;;;;;;;;;;5032570;28;20052;-75
2023/01/30 04:02:10;;;;;;;23.17;12.73;;;;;;;;;;5032668;28;20052;-75
2023/01/30 04:04:36;;;;;;;21.20;12.63;;;;;;;;;;5032853;28;20119;-75
2023/01/30 04:07:02;;;;;;;22.10;13.50;;;;;;;;;;5032592;28;20037;-75
2023/01/30 04:09:28;;;;;;;19.20;12.17;;;;;;;;;;5032575;28;20381;-75
2023/01/30 04:11:54;;;;;;;20.63;12.43;;;;;;;;;;5032733;28;20033;-74
2023/01/30 04:14:20;;;;;;;22.10;11.87;;;;;;;;;;5032691;28;20037;-73
2023/01/30 04:16:46;;;;;;;20.50;11.93;;;;;;;;;;5032918;28;20084;-74
2023/01/30 04:19:12;;;;;;;26.37;12.30;;;;;;;;;;5032503;28;20034;-73
2023/01/30 04:21:38;;;;;;;21.57;11.63;;;;;;;;;;5032454;28;20048;-74
2023/01/30 04:24:04;;;;;;;17.73;10.77;;;;;;;;;;5032720;28;20045;-74
2023/01/30 04:26:30;;;;;;;20.43;11.30;;;;;;;;;;5032692;28;20038;-74
2023/01/30 04:28:57;;;;;;;19.67;11.83;;;;;;;;;;5032889;28;20479;-74
2023/01/30 04:31:23;;;;;;;19.73;11.53;;;;;;;;;;5032664;28;20035;-74
2023/01/30 04:33:49;;;;;;;19.83;11.27;;;;;;;;;;5032509;28;20037;-74
2023/01/30 04:36:15;;;;;;;21.87;12.00;;;;;;;;;;5030989;28;20041;-74
2023/01/30 04:38:41;;;;;;;20.80;11.30;;;;;;;;;;5032455;28;20072;-74
2023/01/30 04:41:07;;;;;;;23.27;11.63;;;;;;;;;;5032475;28;20033;-74
2023/01/30 04:43:33;;;;;;;17.30;10.10;;;;;;;;;;5035249;28;20026;-73
2023/01/30 04:45:59;;;;;;;17.87;11.13;;;;;;;;;;5036442;28;20430;-74
2023/01/30 04:48:26;;;;;;;19.33;10.63;;;;;;;;;;5036126;28;20041;-74
2023/01/30 04:50:55;;;;;;;20.70;11.23;;;;;;;;;;5036354;28;20080;-74
2023/01/30 04:53:21;;;;;;;20.93;12.20;;;;;;;;;;5036191;28;20044;-74
2023/01/30 04:55:47;;;;;;;23.00;11.43;;;;;;;;;;5036187;28;20029;-74
2023/01/30 04:58:14;;;;;;;22.50;11.07;;;;;;;;;;5035993;28;20483;-74
2023/01/30 05:00:40;;;;;;;21.73;12.10;;;;;;;;;;5036069;28;20037;-75
2023/01/30 05:03:06;;;;;;;20.30;13.00;;;;;;;;;;5036177;28;20037;-75
2023/01/30 05:05:33;;;;;;;20.50;12.37;;;;;;;;;;5036068;28;20109;-75
2023/01/30 05:07:59;;;;;;;22.10;11.93;;;;;;;;;;5035976;28;20061;-74
2023/01/30 05:10:25;;;;;;;21.67;12.63;;;;;;;;;;5036137;28;20496;-75
2023/01/30 05:12:51;;;;;;;21.43;11.70;;;;;;;;;;5035663;28;20043;-74
2023/01/30 05:15:17;;;;;;;20.40;11.07;;;;;;;;;;5035772;28;20087;-75
2023/01/30 05:17:43;;;;;;;22.53;11.60;;;;;;;;;;5035720;28;20033;-75
2023/01/30 05:20:10;;;;;;;19.67;12.00;;;;;;;;;;5034571;28;20048;-74
2023/01/30 05:22:36;;;;;;;19.97;11.87;;;;;;;;;;5035909;28;20084;-75
2023/01/30 05:25:02;;;;;;;22.77;13.13;;;;;;;;;;5035720;28;20037;-74
2023/01/30 05:27:28;;;;;;;22.70;13.30;;;;;;;;;;5035453;28;20038;-74
2023/01/30 05:29:54;;;;;;;29.67;15.53;;;;;;;;;;5035714;28;20127;-75
2023/01/30 05:32:20;;;;;;;24.63;14.87;;;;;;;;;;5034283;28;20038;-74
2023/01/30 05:34:48;;;;;;;25.93;15.77;;;;;;;;;;5035339;28;20132;-75
2023/01/30 05:37:14;;;;;;;28.60;14.83;;;;;;;;;;5033746;28;20036;-76
2023/01/30 05:39:40;;;;;;;32.70;15.33;;;;;;;;;;5035508;28;20041;-74
2023/01/30 05:42:06;;;;;;;27.53;15.57;;;;;;;;;;5035559;28;20076;-75
2023/01/30 05:44:32;;;;;;;27.07;15.27;;;;;;;;;;5035117;28;20029;-75
2023/01/30 05:46:59;;;;;;;26.43;14.00;;;;;;;;;;5035192;28;20029;-74
2023/01/30 05:49:25;;;;;;;19.40;12.80;;;;;;;;;;5034744;28;20125;-75
2023/01/30 05:51:51;;;;;;;25.50;13.50;;;;;;;;;;5035194;28;20056;-74
2023/01/30 05:54:17;;;;;;;25.60;13.93;;;;;;;;;;5034793;28;20064;-74
2023/01/30 05:56:43;;;;;;;27.03;13.47;;;;;;;;;;5035066;28;20038;-74
2023/01/30 05:59:11;;;;;;;27.87;14.20;;;;;;;;;;5034885;28;20092;-74
2023/01/30 06:01:37;;;;;;;29.17;15.13;;;;;;;;;;5034796;28;20029;-74
2023/01/30 06:04:03;;;;;;;33.00;14.23;;;;;;;;;;5034912;28;20037;-75
2023/01/30 06:06:29;;;;;;;26.00;13.43;;;;;;;;;;5033528;28;20044;-75
2023/01/30 06:08:56;;;;;;;23.67;13.57;;;;;;;;;;5034766;28;20139;-74
2023/01/30 06:11:22;;;;;;;24.63;13.77;;;;;;;;;;5034669;28;20029;-75
2023/01/30 06:13:48;;;;;;;23.17;12.90;;;;;;;;;;5034725;28;20075;-74
2023/01/30 06:16:15;;;;;;;23.40;12.93;;;;;;;;;;5034544;28;20045;-74
2023/01/30 06:18:42;;;;;;;29.73;12.87;;;;;;;;;;5033493;28;20045;-75
2023/01/30 06:21:08;;;;;;;20.13;11.73;;;;;;;;;;5034812;28;20479;-74
2023/01/30 06:23:34;;;;;;;39.30;13.40;;;;;;;;;;5034678;28;20029;-74
2023/01/30 06:26:01;;;;;;;33.47;13.23;;;;;;;;;;5034485;28;20471;-75
2023/01/30 06:28:27;;;;;;;27.07;13.47;;;;;;;;;;5034831;28;20436;-75
2023/01/30 06:30:53;;;;;;;25.00;12.57;;;;;;;;;;5034602;28;20025;-76
2023/01/30 06:33:20;;;;;;;31.27;15.23;;;;;;;;;;5034935;28;20069;-74
2023/01/30 06:35:48;;;;;;;34.80;15.17;;;;;;;;;;5034493;28;20029;-75
2023/01/30 06:38:14;;;;;;;23.10;13.67;;;;;;;;;;5034588;28;20045;-75
2023/01/30 06:40:40;;;;;;;25.00;13.00;;;;;;;;;;5034415;28;20037;-75
2023/01/30 06:43:07;;;;;;;22.60;12.40;;;;;;;;;;5034069;28;20045;-74
2023/01/30 06:45:33;;;;;;;28.83;14.63;;;;;;;;;;5033996;28;20044;-75
2023/01/30 06:47:59;;;;;;;31.30;14.93;;;;;;;;;;5033676;28;20041;-74
2023/01/30 06:50:27;;;;;;;29.03;15.27;;;;;;;;;;5034136;28;20044;-75
2023/01/30 06:52:54;;;;;;;38.60;14.63;;;;;;;;;;5034085;28;20045;-75
2023/01/30 06:55:22;;;;;;;26.43;13.40;;;;;;;;;;5035308;28;20045;-74
2023/01/30 06:57:48;;;;;;;31.43;12.40;;;;;;;;;;5033995;28;20400;-75
2023/01/30 07:00:16;;;;;;;24.83;12.80;;;;;;;;;;5033330;28;20061;-75
2023/01/30 07:02:42;;;;;;;25.77;12.43;;;;;;;;;;5033575;28;20108;-74
2023/01/30 07:05:09;;;;;;;21.77;12.57;;;;;;;;;;5032713;28;20045;-75
2023/01/30 07:07:35;;;;;;;24.63;13.53;;;;;;;;;;5032297;28;20037;-75
2023/01/30 07:10:02;;;;;;;28.40;13.50;;;;;;;;;;5033384;28;20041;-75
2023/01/30 07:12:28;;;;;;;34.90;13.30;;;;;;;;;;5033195;28;20029;-74
2023/01/30 07:14:54;;;;;;;26.60;13.00;;;;;;;;;;5033182;28;20030;-74
2023/01/30 07:17:21;;;;;;;30.43;12.67;;;;;;;;;;5033465;28;20033;-75
2023/01/30 07:19:47;;;;;;;35.87;13.50;;;;;;;;;;5032176;28;20037;-75
2023/01/30 07:22:13;;;;;;;27.00;14.67;;;;;;;;;;5032354;28;20041;-74
2023/01/30 07:24:41;;;;;;;24.80;13.77;;;;;;;;;;5032861;28;20037;-75
2023/01/30 07:27:08;;;;;;;33.67;12.80;;;;;;;;;;5030422;28;20739;-75
2023/01/30 07:29:34;;;;;;;25.43;12.50;;;;;;;;;;5031021;28;20045;-74
2023/01/30 07:32:00;;;;;;;30.77;11.90;;;;;;;;;;5033148;28;20072;-75
2023/01/30 07:34:26;;;;;;;28.00;13.63;;;;;;;;;;5032927;28;20037;-74
2023/01/30 07:36:53;;;;;;;30.40;12.17;;;;;;;;;;5031321;28;20052;-74
2023/01/30 07:39:19;;;;;;;27.33;13.20;;;;;;;;;;5032408;28;20041;-75
2023/01/30 07:41:45;;;;;;;25.73;13.70;;;;;;;;;;4975030;28;20037;-75
2023/01/30 07:44:12;;;;;;;23.80;13.17;;;;;;;;;;5029957;28;20403;-74
2023/01/30 07:46:38;;;;;;;22.83;12.50;;;;;;;;;;5030967;28;21031;-74
2023/01/30 07:49:05;;;;;;;26.60;10.50;;;;;;;;;;5032230;28;20105;-74
2023/01/30 07:51:31;;;;;;;21.87;12.33;;;;;;;;;;5032583;28;20087;-74
2023/01/30 07:53:59;;;;;;;19.10;10.20;;;;;;;;;;5032562;28;20034;-75
2023/01/30 07:56:25;;;;;;;20.90;10.47;;;;;;;;;;5032718;28;20033;-74
2023/01/30 07:58:51;;;;;;;18.90;9.77;;;;;;;;;;5032201;28;20060;-74
2023/01/30 08:01:18;;;;;;;20.23;10.67;;;;;;;;;;5031889;28;20072;-75
2023/01/30 08:03:45;;;;;;;16.17;10.00;;;;;;;;;;5032498;28;20511;-75
2023/01/30 08:06:12;;;;;;;16.67;9.53;;;;;;;;;;5032667;28;20025;-74
2023/01/30 08:08:39;;;;;;;17.37;10.20;;;;;;;;;;5031928;28;20073;-74
2023/01/30 08:11:05;;;;;;;17.40;9.17;;;;;;;;;;5032160;28;20087;-75
2023/01/30 08:13:31;;;;;;;15.67;9.20;;;;;;;;;;5032397;28;20065;-75
2023/01/30 08:16:00;;;;;;;16.50;9.57;;;;;;;;;;5032469;28;20488;-75
2023/01/30 08:18:28;;;;;;;15.47;9.23;;;;;;;;;;5032659;28;20036;-74
2023/01/30 08:20:57;;;;;;;15.50;9.23;;;;;;;;;;5032720;28;20064;-75
2023/01/30 08:23:23;;;;;;;14.57;9.10;;;;;;;;;;5032765;28;20365;-75
2023/01/30 08:25:49;;;;;;;15.33;9.60;;;;;;;;;;5032414;28;20038;-76
2023/01/30 08:28:15;;;;;;;16.27;9.63;;;;;;;;;;5032380;28;20060;-76
2023/01/30 08:30:41;;;;;;;24.07;12.57;;;;;;;;;;5032418;28;20053;-75
2023/01/30 08:33:07;;;;;;;21.80;11.93;;;;;;;;;;5032739;28;20079;-75
2023/01/30 08:35:33;;;;;;;19.73;11.33;;;;;;;;;;5014768;28;20038;-76
2023/01/30 08:37:59;;;;;;;41.43;11.40;;;;;;;;;;5032565;28;20041;-75
2023/01/30 08:40:26;;;;;;;28.13;11.13;;;;;;;;;;5032373;28;20033;-76
2023/01/30 08:42:52;;;;;;;18.57;10.97;;;;;;;;;;5032504;28;20033;-76
2023/01/30 08:45:18;;;;;;;28.33;11.73;;;;;;;;;;5032348;28;20029;-75
2023/01/30 08:47:44;;;;;;;18.10;11.17;;;;;;;;;;5032414;28;20037;-76
2023/01/30 08:50:10;;;;;;;22.97;11.20;;;;;;;;;;5014628;28;20123;-75
2023/01/30 08:52:36;;;;;;;24.17;11.57;;;;;;;;;;5032434;28;20029;-75
2023/01/30 08:55:02;;;;;;;26.37;11.23;;;;;;;;;;5032309;28;20046;-75
2023/01/30 08:57:29;;;;;;;35.07;11.50;;;;;;;;;;5014825;28;20034;-75
2023/01/30 08:59:55;;;;;;;23.57;13.37;;;;;;;;;;5032230;28;20104;-75
2023/01/30 09:02:22;;;;;;;24.07;12.97;;;;;;;;;;5032294;28;20054;-76
2023/01/30 09:04:48;;;;;;;23.60;12.30;;;;;;;;;;5032362;28;20513;-75
2023/01/30 09:07:14;;;;;;;26.33;15.37;;;;;;;;;;5032536;28;20061;-75
2023/01/30 09:09:40;;;;;;;22.90;12.40;;;;;;;;;;5032140;28;20045;-75
2023/01/30 09:12:06;;;;;;;23.13;11.80;;;;;;;;;;5032541;28;20125;-75
2023/01/30 09:14:33;;;;;;;14.47;9.63;;;;;;;;;;5032271;28;20040;-76
2023/01/30 09:16:59;;;;;;;23.57;10.37;;;;;;;;;;5032434;28;20041;-76
2023/01/30 09:19:26;;;;;;;17.93;10.43;;;;;;;;;;5032073;28;20091;-75
2023/01/30 09:21:52;;;;;;;23.67;11.67;;;;;;;;;;5032317;28;20395;-76
2023/01/30 09:24:19;;;;;;;24.60;11.63;;;;;;;;;;5032062;28;20040;-76
2023/01/30 09:26:45;;;;;;;21.27;12.33;;;;;;;;;;5031838;28;20041;-76
2023/01/30 09:29:12;;;;;;;20.37;11.97;;;;;;;;;;5033991;28;20103;-76
2023/01/30 09:31:38;;;;;;;28.13;12.80;;;;;;;;;;5017804;28;20123;-76
2023/01/30 09:34:04;;;;;;;23.47;12.30;;;;;;;;;;5035731;28;20425;-74
2023/01/30 09:36:30;;;;;;;27.33;12.47;;;;;;;;;;5035464;28;20029;-75
2023/01/30 09:38:56;;;;;;;22.33;11.70;;;;;;;;;;5035496;28;20065;-74
2023/01/30 09:41:35;;;;;;;27.33;12.10;;;;;;;;;;5034646;28;20033;-75
2023/01/30 09:44:04;;;;;;;23.60;12.67;;;;;;;;;;5035488;28;20033;-75
2023/01/30 09:46:33;;;;;;;21.33;13.00;;;;;;;;;;5035509;28;20036;-75
2023/01/30 09:48:59;;;;;;;29.20;12.90;;;;;;;;;;5035181;28;20136;-76
2023/01/30 09:51:31;;;;;;;25.77;13.53;;;;;;;;;;5017837;28;20037;-75
2023/01/30 09:54:13;;;;;;;26.05;12.48;;;;;;;;;;5035315;28;20514;-76
2023/01/30 09:56:39;;;;;;;27.83;12.80;;;;;;;;;;5035296;28;20422;-75
2023/01/30 09:59:05;;;;;;;22.13;13.40;;;;;;;;;;5013746;28;20053;-76
2023/01/30 10:01:50;;;;;;;24.73;13.40;;;;;;;;;;5015423;28;20488;-75
2023/01/30 10:04:21;;;;;;;21.97;12.67;;;;;;;;;;5014170;28;20069;-75
2023/01/30 10:06:55;;;;;;;21.57;11.93;;;;;;;;;;5015547;28;20034;-75
2023/01/30 10:09:53;;;;;;;17.17;11.20;;;;;;;;;;5014949;28;20066;-76
2023/01/30 10:12:45;;;;;;;16.33;9.40;;;;;;;;;;5003306;28;20038;-74
2023/01/30 10:15:30;;;;;;;21.00;10.47;;;;;;;;;;5006880;28;20038;-75
2023/01/30 10:18:02;;;;;;;16.73;10.80;;;;;;;;;;5013860;28;20062;-76
2023/01/30 10:20:48;;;;;;;22.52;9.70;;;;;;;;;;5015028;28;20038;-75
2023/01/30 10:23:24;;;;;;;17.57;9.37;;;;;;;;;;5014781;28;20038;-75
2023/01/30 10:25:52;;;;;;;19.03;9.97;;;;;;;;;;5014818;28;20040;-75
2023/01/30 10:28:21;;;;;;;20.13;10.50;;;;;;;;;;5014879;28;20113;-76
2023/01/30 10:30:48;;;;;;;17.13;9.70;;;;;;;;;;5014777;28;20116;-75
2023/01/30 10:33:43;;;;;;;20.20;9.20;;;;;;;;;;5014743;28;20034;-77
2023/01/30 10:36:19;;;;;;;17.80;8.67;;;;;;;;;;4994470;28;20049;-76
2023/01/30 10:38:52;;;;;;;12.40;8.30;;;;;;;;;;5012978;28;20169;-75
2023/01/30 10:41:27;;;;;;;22.23;10.33;;;;;;;;;;5020146;28;20041;-75
2023/01/30 10:44:10;;;;;;;16.13;10.13;;;;;;;;;;5030510;28;20491;-77
2023/01/30 10:46:39;;;;;;;17.92;9.63;;;;;;;;;;5034331;28;20037;-76
2023/01/30 10:49:06;;;;;;;15.37;9.70;;;;;;;;;;5034087;28;20053;-75
2023/01/30 10:51:55;;;;;;;17.70;8.80;;;;;;;;;;5033901;28;20040;-75
2023/01/30 10:54:28;;;;;;;14.10;8.83;;;;;;;;;;5014090;28;20042;-75
2023/01/30 10:56:58;;;;;;;15.77;7.93;;;;;;;;;;5010231;28;20484;-75
2023/01/30 10:59:24;;;;;;;13.97;8.37;;;;;;;;;;5022309;28;20053;-75
2023/01/30 11:01:58;;;;;;;17.23;8.03;;;;;;;;;;5033765;28;20430;-76
2023/01/30 11:04:34;;;;;;;15.07;8.47;;;;;;;;;;5033782;28;20033;-79
2023/01/30 11:07:01;;;;;;;13.30;7.70;;;;;;;;;;5033816;28;20064;-76
2023/01/30 11:09:43;;;;;;;13.77;8.17;;;;;;;;;;5033756;28;20075;-76
2023/01/30 11:12:10;;;;;;;26.50;9.60;;;;;;;;;;5033871;28;20086;-77
2023/01/30 11:14:52;;;;;;;24.37;10.57;;;;;;;;;;5033771;28;20488;-77
2023/01/30 11:17:19;;;;;;;19.60;12.48;;;;;;;;;;5033727;28;20511;-76
2023/01/30 11:19:45;;;;;;;20.17;11.23;;;;;;;;;;5033600;28;20037;-73
2023/01/30 11:22:14;;;;;;;42.27;14.57;;;;;;;;;;5033371;28;20047;-71
2023/01/30 11:24:41;;;;;;;27.40;13.20;;;;;;;;;;5033444;28;20052;-71
2023/01/30 11:27:43;;;;;;;30.03;14.47;;;;;;;;;;5015520;28;20044;-73
2023/01/30 11:30:14;;;;;;;159.07;45.83;;;;;;;;;;4991915;28;20250;-74
2023/01/30 11:32:42;;;;;;;48.77;22.30;;;;;;;;;;5026162;28;20497;-74
2023/01/30 11:35:08;;;;;;;19.67;12.73;;;;;;;;;;5033131;28;20025;-74
2023/01/30 11:37:36;;;;;;;34.83;16.60;;;;;;;;;;5033346;28;20040;-73
2023/01/30 11:40:17;;;;;;;114.93;40.63;;;;;;;;;;5032866;28;20096;-73
2023/01/30 11:42:44;;;;;;;94.37;37.07;;;;;;;;;;5031497;28;20384;-71
2023/01/30 11:45:11;;;;;;;39.10;22.17;;;;;;;;;;5013067;28;20496;-73
2023/01/30 11:47:39;;;;;;;39.13;21.10;;;;;;;;;;5013075;28;20041;-72
2023/01/30 11:50:05;;;;;;;23.87;15.33;;;;;;;;;;5013608;28;20075;-73
2023/01/30 11:52:33;;;;;;;38.70;24.37;;;;;;;;;;5012833;28;20109;-71
2023/01/30 11:55:04;;;;;;;24.07;16.50;;;;;;;;;;5013447;28;20117;-73
2023/01/30 11:57:38;;;;;;;31.37;17.23;;;;;;;;;;5013405;28;20037;-73
2023/01/30 12:00:04;;;;;;;44.90;28.43;;;;;;;;;;5013021;28;20053;-75
2023/01/30 12:02:35;;;;;;;29.77;20.93;;;;;;;;;;5012924;28;20073;-75
2023/01/30 12:05:01;;;;;;;42.23;27.20;;;;;;;;;;5013414;28;20069;-74
2023/01/30 12:07:28;;;;;;;37.33;23.20;;;;;;;;;;5013287;28;20038;-75
2023/01/30 12:09:55;;;;;;;29.13;18.30;;;;;;;;;;5012933;28;20046;-72
2023/01/30 12:12:27;;;;;;;42.53;22.27;;;;;;;;;;5013135;28;20109;-75
2023/01/30 12:14:57;;;;;;;26.58;17.05;;;;;;;;;;5013218;28;20108;-73
2023/01/30 12:17:32;;;;;;;27.43;17.27;;;;;;;;;;5013140;28;20038;-72
2023/01/30 12:20:17;;;;;;;27.10;17.10;;;;;;;;;;5013156;28;20072;-74
2023/01/30 12:23:03;;;;;;;28.37;17.87;;;;;;;;;;5012691;28;20030;-73
2023/01/30 12:25:42;;;;;;;25.40;16.10;;;;;;;;;;5012736;28;20038;-72
2023/01/30 12:28:29;;;;;;;24.20;16.57;;;;;;;;;;5012643;28;20557;-73
2023/01/30 12:30:57;;;;;;;25.27;16.80;;;;;;;;;;5012510;28;20519;-74
2023/01/30 12:33:28;;;;;;;22.97;16.10;;;;;;;;;;5012252;28;20096;-75
2023/01/30 12:36:05;;;;;;;34.10;16.47;;;;;;;;;;5012705;28;20034;-72
2023/01/30 12:38:40;;;;;;;28.33;17.00;;;;;;;;;;5012823;28;20030;-73
2023/01/30 12:41:14;;;;;;;24.93;16.00;;;;;;;;;;5012687;28;20041;-73
2023/01/30 12:43:43;;;;;;;25.50;15.50;;;;;;;;;;5012456;28;20117;-73
2023/01/30 12:46:09;;;;;;;24.50;16.43;;;;;;;;;;5012436;28;20496;-74
2023/01/30 12:48:35;;;;;;;22.60;15.77;;;;;;;;;;4995069;28;20403;-72
2023/01/30 12:51:10;;;;;;;26.00;16.20;;;;;;;;;;5012829;28;20112;-71
2023/01/30 12:53:36;;;;;;;23.30;16.07;;;;;;;;;;5012712;28;20444;-72
2023/01/30 12:56:02;;;;;;;24.07;16.87;;;;;;;;;;5012451;28;20034;-71
2023/01/30 12:58:28;;;;;;;24.33;16.90;;;;;;;;;;5012413;28;20026;-72
2023/01/30 13:01:00;;;;;;;26.10;16.60;;;;;;;;;;5012633;28;20046;-72
2023/01/30 13:03:26;;;;;;;26.77;18.23;;;;;;;;;;5013466;28;20033;-72
2023/01/30 13:05:55;;;;;;;28.13;18.63;;;;;;;;;;4999061;28;20631;-71
2023/01/30 13:08:34;;;;;;;29.67;17.83;;;;;;;;;;5015975;28;21889;-71
2023/01/30 13:11:00;;;;;;;30.00;18.67;;;;;;;;;;5016217;28;20025;-71
2023/01/30 13:13:34;;;;;;;30.77;19.33;;;;;;;;;;5016390;28;20037;-73
2023/01/30 13:16:10;;;;;;;28.90;20.10;;;;;;;;;;5016140;28;20507;-71
2023/01/30 13:18:40;;;;;;;31.67;19.00;;;;;;;;;;5016018;28;20148;-75
2023/01/30 13:21:19;;;;;;;29.90;19.73;;;;;;;;;;5016063;28;20037;-76
2023/01/30 13:23:48;;;;;;;29.90;18.97;;;;;;;;;;5016258;28;20037;-74
2023/01/30 13:26:19;;;;;;;29.57;20.07;;;;;;;;;;5015996;28;20076;-73
2023/01/30 13:28:47;;;;;;;32.37;19.40;;;;;;;;;;5014239;28;20120;-73
2023/01/30 13:31:15;;;;;;;29.53;19.50;;;;;;;;;;5013135;28;20049;-74
2023/01/30 13:33:43;;;;;;;35.17;21.80;;;;;;;;;;5013083;28;20161;-74
2023/01/30 13:36:09;;;;;;;33.60;21.27;;;;;;;;;;5015321;28;20037;-73
2023/01/30 13:38:38;;;;;;;32.30;22.20;;;;;;;;;;5015681;28;20073;-73
2023/01/30 13:41:05;;;;;;;35.03;22.47;;;;;;;;;;5015671;28;20033;-73
2023/01/30 13:43:35;;;;;;;32.40;21.67;;;;;;;;;;5015388;28;20030;-73
2023/01/30 13:46:03;;;;;;;36.93;22.50;;;;;;;;;;5015590;28;20120;-75
2023/01/30 13:48:47;;;;;;;37.87;23.37;;;;;;;;;;4998032;28;20038;-74
2023/01/30 13:51:13;;;;;;;51.60;26.77;;;;;;;;;;4997774;28;20050;-74
2023/01/30 13:53:39;;;;;;;37.30;24.23;;;;;;;;;;5015602;28;20042;-75
2023/01/30 13:56:11;;;;;;;39.60;24.10;;;;;;;;;;5013672;28;20034;-74
2023/01/30 13:58:44;;;;;;;36.55;23.75;;;;;;;;;;5012663;28;20046;-72
2023/01/30 14:01:13;;;;;;;55.83;29.23;;;;;;;;;;5013667;28;20041;-73
2023/01/30 14:03:40;;;;;;;40.27;24.37;;;;;;;;;;5015151;28;20034;-75
2023/01/30 14:06:10;;;;;;;38.03;25.20;;;;;;;;;;5015444;28;20041;-74
2023/01/30 14:08:45;;;;;;;74.63;36.27;;;;;;;;;;5015309;28;20388;-75
2023/01/30 14:11:31;;;;;;;51.43;29.07;;;;;;;;;;5015110;28;20038;-74
2023/01/30 14:14:02;;;;;;;41.27;25.30;;;;;;;;;;5014848;28;20045;-73
2023/01/30 14:16:45;;;;;;;41.47;23.93;;;;;;;;;;5014881;28;20125;-75
2023/01/30 14:19:11;;;;;;;;;;;;;;;;;;5015177;28;20038;-74
2023/01/30 14:21:37;;;;;;;54.87;30.80;;;;;;;;;;5014767;28;19905;-74
2023/01/30 14:24:04;;;;;;;41.00;23.33;;;;;;;;;;5014689;28;20580;-76
2023/01/30 14:26:49;;;;;;;47.80;31.70;;;;;;;;;;5014880;28;20378;-78
2023/01/30 14:29:33;;;;;;;35.23;23.27;;;;;;;;;;5014914;28;20599;-77
2023/01/30 14:32:00;;;;;;;38.17;23.43;;;;;;;;;;5014588;28;20057;-78
2023/01/30 14:34:39;;;;;;;34.63;22.47;;;;;;;;;;5014474;28;20026;-76